createdAt,value
2023-05-23T00:01:02.307Z,2.37
2023-05-23T00:03:31.333Z,2.47
2023-05-23T00:05:59.030Z,2.43
2023-05-23T00:08:25.772Z,2.70
2023-05-23T00:10:52.315Z,2.30
2023-05-23T00:13:18.912Z,2.27
2023-05-23T00:15:45.534Z,2.47
2023-05-23T00:18:12.196Z,2.47
2023-05-23T00:20:42.583Z,2.30
2023-05-23T00:23:10.038Z,2.30
2023-05-23T00:25:37.117Z,2.60
2023-05-23T00:28:04.001Z,2.70
2023-05-23T00:30:30.989Z,2.40
2023-05-23T00:32:57.737Z,2.83
2023-05-23T00:35:24.480Z,2.30
2023-05-23T00:37:51.866Z,2.40
2023-05-23T00:40:18.933Z,2.23
2023-05-23T00:42:45.590Z,2.40
2023-05-23T00:45:15.079Z,2.60
2023-05-23T00:47:41.924Z,2.53
2023-05-23T00:50:09.068Z,2.27
2023-05-23T00:52:35.691Z,2.43
2023-05-23T00:55:02.308Z,2.50
2023-05-23T00:57:28.857Z,2.10
2023-05-23T00:59:55.530Z,2.70
2023-05-23T01:02:22.316Z,2.27
2023-05-23T01:04:54.232Z,2.10
2023-05-23T01:07:21.454Z,2.50
2023-05-23T01:09:48.053Z,2.43
2023-05-23T01:12:21.665Z,2.43
2023-05-23T01:15:08.766Z,2.10
2023-05-23T01:17:44.918Z,2.50
2023-05-23T01:20:12.765Z,2.40
2023-05-23T01:23:00.416Z,2.37
2023-05-23T01:26:08.879Z,2.57
2023-05-23T01:28:41.814Z,2.47
2023-05-23T01:31:08.428Z,2.17
2023-05-23T01:33:35.011Z,2.40
2023-05-23T01:36:03.548Z,2.27
2023-05-23T01:38:30.336Z,2.23
2023-05-23T01:40:56.895Z,2.27
2023-05-23T01:43:23.518Z,2.07
2023-05-23T01:45:50.107Z,2.20
2023-05-23T01:48:16.690Z,2.20
2023-05-23T01:50:45.549Z,2.37
2023-05-23T01:53:12.671Z,2.30
2023-05-23T01:55:40.487Z,2.60
2023-05-23T01:58:07.186Z,2.27
2023-05-23T02:00:33.739Z,1.80
2023-05-23T02:03:00.466Z,2.30
2023-05-23T02:05:27.437Z,2.43
2023-05-23T02:07:54.023Z,2.20
2023-05-23T02:10:21.067Z,2.47
2023-05-23T02:12:47.685Z,2.50
2023-05-23T02:15:14.284Z,2.27
2023-05-23T02:17:41.518Z,2.70
2023-05-23T02:20:08.706Z,2.60
2023-05-23T02:22:35.819Z,2.37
2023-05-23T02:25:02.456Z,2.40
2023-05-23T02:27:29.076Z,2.43
2023-05-23T02:29:55.630Z,2.50
2023-05-23T02:32:22.172Z,2.60
2023-05-23T02:34:50.448Z,2.40
2023-05-23T02:37:16.993Z,2.30
2023-05-23T02:39:43.831Z,2.63
2023-05-23T02:42:10.471Z,2.10
2023-05-23T02:44:37.063Z,2.20
2023-05-23T02:47:03.694Z,2.30
2023-05-23T02:49:30.441Z,2.50
2023-05-23T02:51:56.981Z,2.37
2023-05-23T02:54:23.572Z,2.30
2023-05-23T02:56:52.384Z,2.40
2023-05-23T02:59:18.989Z,2.60
2023-05-23T03:01:45.621Z,2.30
2023-05-23T03:04:13.685Z,2.30
2023-05-23T03:06:42.205Z,2.60
2023-05-23T03:09:09.532Z,2.17
2023-05-23T03:11:36.912Z,2.20
2023-05-23T03:14:03.469Z,2.30
2023-05-23T03:16:30.176Z,2.30
2023-05-23T03:18:56.766Z,2.30
2023-05-23T03:21:23.368Z,2.07
2023-05-23T03:23:50.397Z,2.53
2023-05-23T03:26:17.247Z,2.30
2023-05-23T03:28:43.789Z,2.20
2023-05-23T03:31:10.313Z,2.13
2023-05-23T03:33:39.638Z,2.53
2023-05-23T03:36:07.199Z,2.37
2023-05-23T03:38:33.724Z,2.33
2023-05-23T03:41:00.397Z,2.20
2023-05-23T03:43:27.149Z,2.10
2023-05-23T03:45:54.064Z,2.33
2023-05-23T03:48:20.731Z,2.10
2023-05-23T03:50:47.434Z,2.30
2023-05-23T03:53:14.052Z,2.30
2023-05-23T03:55:40.847Z,2.40
2023-05-23T03:58:07.581Z,2.30
2023-05-23T04:00:34.138Z,2.30
2023-05-23T04:03:00.795Z,2.23
2023-05-23T04:05:27.455Z,2.43
2023-05-23T04:07:54.042Z,2.47
2023-05-23T04:10:20.675Z,2.17
2023-05-23T04:12:47.920Z,2.40
2023-05-23T04:15:14.502Z,2.40
2023-05-23T04:17:41.077Z,2.20
2023-05-23T04:20:09.640Z,2.20
2023-05-23T04:22:36.269Z,2.30
2023-05-23T04:25:02.820Z,2.40
2023-05-23T04:27:29.667Z,2.10
2023-05-23T04:29:58.214Z,2.20
2023-05-23T04:32:25.375Z,2.50
2023-05-23T04:34:52.273Z,2.30
2023-05-23T04:37:22.274Z,2.60
2023-05-23T04:39:48.948Z,2.37
2023-05-23T04:42:15.904Z,2.40
2023-05-23T04:44:42.944Z,2.23
2023-05-23T04:47:09.823Z,2.40
2023-05-23T04:49:37.339Z,2.43
2023-05-23T04:52:03.948Z,2.33
2023-05-23T04:54:31.324Z,2.27
2023-05-23T04:56:58.103Z,2.60
2023-05-23T04:59:24.779Z,2.40
2023-05-23T05:01:51.335Z,2.40
2023-05-23T05:04:18.067Z,2.40
2023-05-23T05:06:44.663Z,2.37
2023-05-23T05:09:11.296Z,2.47
2023-05-23T05:11:37.841Z,2.50
2023-05-23T05:14:04.377Z,2.60
2023-05-23T05:16:31.070Z,2.40
2023-05-23T05:18:57.692Z,2.30
2023-05-23T05:21:24.246Z,2.40
2023-05-23T05:23:51.513Z,2.40
2023-05-23T05:26:18.186Z,2.27
2023-05-23T05:28:44.752Z,2.40
2023-05-23T05:31:15.442Z,2.27
2023-05-23T05:33:46.105Z,2.50
2023-05-23T05:36:12.832Z,2.53
2023-05-23T05:38:39.418Z,2.33
2023-05-23T05:41:08.161Z,2.37
2023-05-23T05:43:35.916Z,2.43
2023-05-23T05:46:02.765Z,2.43
2023-05-23T05:48:29.459Z,2.40
2023-05-23T05:50:56.143Z,2.13
2023-05-23T05:53:22.722Z,2.47
2023-05-23T05:55:49.262Z,2.37
2023-05-23T05:58:15.827Z,2.33
2023-05-23T06:00:42.911Z,2.47
2023-05-23T06:03:09.777Z,2.37
2023-05-23T06:05:37.506Z,2.27
2023-05-23T06:08:04.842Z,2.30
2023-05-23T06:10:31.496Z,2.40
2023-05-23T06:12:58.725Z,2.20
2023-05-23T06:15:25.975Z,2.50
2023-05-23T06:17:52.817Z,2.50
2023-05-23T06:20:19.423Z,2.23
2023-05-23T06:22:46.058Z,2.10
2023-05-23T06:25:12.743Z,2.60
2023-05-23T06:27:39.322Z,2.40
2023-05-23T06:30:06.647Z,2.10
2023-05-23T06:32:33.359Z,2.23
2023-05-23T06:34:59.937Z,2.27
2023-05-23T06:37:26.541Z,2.17
2023-05-23T06:39:53.075Z,2.37
2023-05-23T06:42:19.646Z,2.30
2023-05-23T06:44:46.172Z,2.10
2023-05-23T06:47:12.728Z,2.50
2023-05-23T06:49:39.261Z,2.30
2023-05-23T06:52:05.997Z,2.30
2023-05-23T06:54:32.547Z,2.23
2023-05-23T06:56:59.086Z,2.20
2023-05-23T06:59:25.674Z,2.10
2023-05-23T07:01:52.234Z,2.40
2023-05-23T07:04:18.806Z,2.17
2023-05-23T07:06:45.434Z,2.23
2023-05-23T07:09:13.148Z,2.40
2023-05-23T07:11:41.132Z,2.10
2023-05-23T07:14:07.945Z,2.17
2023-05-23T07:16:34.601Z,2.30
2023-05-23T07:19:01.745Z,2.00
2023-05-23T07:21:28.392Z,2.30
2023-05-23T07:23:54.950Z,2.20
2023-05-23T07:26:21.572Z,2.10
2023-05-23T07:28:48.145Z,2.10
2023-05-23T07:31:14.870Z,2.30
2023-05-23T07:33:41.452Z,2.20
2023-05-23T07:36:08.632Z,2.47
2023-05-23T07:38:35.230Z,1.90
2023-05-23T07:41:11.501Z,2.40
2023-05-23T07:43:38.780Z,2.50
2023-05-23T07:46:05.437Z,2.20
2023-05-23T07:48:32.318Z,2.00
2023-05-23T07:50:58.988Z,2.23
2023-05-23T07:53:26.278Z,2.20
2023-05-23T07:55:53.034Z,2.30
2023-05-23T07:58:19.632Z,2.40
2023-05-23T08:00:46.223Z,2.10
2023-05-23T08:03:13.419Z,2.20
2023-05-23T08:05:40.085Z,2.37
2023-05-23T08:08:06.679Z,2.40
2023-05-23T08:10:33.257Z,2.40
2023-05-23T08:13:00.954Z,2.20
2023-05-23T08:15:28.841Z,2.27
2023-05-23T08:17:57.230Z,2.30
2023-05-23T08:20:30.645Z,2.40
2023-05-23T08:23:00.978Z,2.30
2023-05-23T08:25:30.476Z,2.30
2023-05-23T08:28:00.496Z,2.23
2023-05-23T08:30:27.654Z,2.20
2023-05-23T08:32:57.924Z,2.13
2023-05-23T08:35:24.630Z,2.17
2023-05-23T08:37:52.256Z,1.90
2023-05-23T08:40:21.329Z,2.30
2023-05-23T08:42:48.995Z,2.30
2023-05-23T08:45:16.460Z,2.00
2023-05-23T08:47:44.774Z,2.20
2023-05-23T08:50:21.043Z,2.30
2023-05-23T08:52:58.979Z,2.10
2023-05-23T08:55:27.368Z,2.03
2023-05-23T08:57:54.660Z,2.00
2023-05-23T09:00:22.463Z,2.10
2023-05-23T09:02:49.522Z,2.40
2023-05-23T09:05:16.172Z,2.20
2023-05-23T09:07:44.889Z,2.17
2023-05-23T09:10:12.332Z,2.00
2023-05-23T09:12:38.944Z,2.30
2023-05-23T09:15:08.989Z,1.93
2023-05-23T09:17:36.368Z,2.10
2023-05-23T09:20:05.486Z,1.87
2023-05-23T09:22:32.058Z,2.10
2023-05-23T09:24:58.682Z,2.10
2023-05-23T09:27:25.364Z,2.20
2023-05-23T09:29:52.049Z,2.27
2023-05-23T09:32:18.893Z,2.30
2023-05-23T09:34:56.215Z,2.10
2023-05-23T09:37:25.830Z,2.00
2023-05-23T09:39:52.464Z,2.10
2023-05-23T09:42:23.017Z,2.13
2023-05-23T09:44:50.202Z,2.03
2023-05-23T09:47:17.160Z,2.10
2023-05-23T09:49:44.316Z,2.20
2023-05-23T09:52:11.509Z,1.80
2023-05-23T09:54:38.304Z,2.10
2023-05-23T09:57:05.572Z,2.00
2023-05-23T09:59:32.770Z,1.97
2023-05-23T10:01:59.366Z,2.50
2023-05-23T10:04:26.176Z,2.27
2023-05-23T10:07:01.912Z,2.07
2023-05-23T10:09:28.766Z,2.20
2023-05-23T10:12:17.042Z,2.00
2023-05-23T10:14:45.132Z,2.00
2023-05-23T10:17:20.208Z,2.13
2023-05-23T10:19:48.561Z,1.93
2023-05-23T10:22:16.239Z,2.00
2023-05-23T10:24:44.907Z,1.90
2023-05-23T10:27:11.491Z,2.20
2023-05-23T10:29:38.162Z,2.17
2023-05-23T10:32:05.200Z,1.93
2023-05-23T10:35:01.913Z,2.17
2023-05-23T10:38:03.587Z,2.00
2023-05-23T10:40:54.887Z,1.90
2023-05-23T10:43:31.533Z,1.97
2023-05-23T10:45:58.377Z,2.33
2023-05-23T10:48:31.324Z,2.23
2023-05-23T10:51:08.554Z,2.10
2023-05-23T10:53:40.064Z,2.07
2023-05-23T10:56:07.552Z,2.10
2023-05-23T10:58:34.561Z,2.03
2023-05-23T11:01:13.346Z,2.00
2023-05-23T11:03:45.918Z,2.10
2023-05-23T11:06:45.101Z,2.17
2023-05-23T11:09:12.794Z,2.17
2023-05-23T11:12:06.554Z,2.10
2023-05-23T11:14:53.909Z,2.10
2023-05-23T11:17:32.075Z,1.80
2023-05-23T11:20:09.823Z,1.90
2023-05-23T11:22:36.604Z,2.20
2023-05-23T11:25:10.089Z,1.80
2023-05-23T11:27:40.141Z,2.03
2023-05-23T11:30:16.615Z,2.00
2023-05-23T11:32:53.116Z,1.90
2023-05-23T11:35:19.806Z,1.93
2023-05-23T11:37:47.178Z,2.10
2023-05-23T11:40:27.002Z,2.00
2023-05-23T11:42:56.742Z,1.87
2023-05-23T11:45:23.757Z,2.10
2023-05-23T11:47:50.657Z,1.83
2023-05-23T11:50:17.838Z,2.00
2023-05-23T11:52:45.190Z,1.93
2023-05-23T11:55:11.769Z,1.90
2023-05-23T11:57:41.471Z,2.13
2023-05-23T12:00:08.946Z,2.13
2023-05-23T12:02:42.238Z,1.87
2023-05-23T12:05:09.738Z,1.70
2023-05-23T12:07:36.975Z,1.90
2023-05-23T12:10:04.682Z,1.87
2023-05-23T12:12:32.299Z,2.10
2023-05-23T12:14:59.548Z,2.07
2023-05-23T12:17:26.410Z,1.80
2023-05-23T12:19:53.036Z,2.00
2023-05-23T12:22:25.685Z,1.90
2023-05-23T12:24:55.831Z,1.90
2023-05-23T12:27:34.583Z,1.83
2023-05-23T12:30:11.766Z,2.07
2023-05-23T12:32:42.195Z,1.90
2023-05-23T12:35:10.162Z,1.77
2023-05-23T12:37:56.529Z,1.90
2023-05-23T12:40:23.227Z,1.90
2023-05-23T12:42:56.260Z,2.10
2023-05-23T12:45:36.867Z,1.90
2023-05-23T12:48:04.410Z,2.10
2023-05-23T12:50:31.215Z,1.90
2023-05-23T12:52:58.123Z,2.00
2023-05-23T12:55:24.688Z,1.90
2023-05-23T12:57:51.316Z,1.80
2023-05-23T13:00:19.396Z,1.83
2023-05-23T13:02:46.262Z,1.97
2023-05-23T13:05:12.991Z,2.00
2023-05-23T13:07:39.538Z,2.10
2023-05-23T13:10:06.796Z,2.00
2023-05-23T13:12:34.355Z,1.87
2023-05-23T13:15:01.072Z,1.80
2023-05-23T13:17:28.025Z,1.80
2023-05-23T13:19:54.672Z,1.80
2023-05-23T13:22:21.252Z,1.90
2023-05-23T13:24:47.810Z,1.97
2023-05-23T13:27:14.395Z,1.80
2023-05-23T13:29:40.980Z,1.93
2023-05-23T13:32:08.135Z,2.10
2023-05-23T13:34:37.461Z,1.73
2023-05-23T13:37:04.909Z,1.90
2023-05-23T13:39:31.596Z,1.73
2023-05-23T13:41:58.173Z,1.90
2023-05-23T13:44:24.859Z,2.00
2023-05-23T13:46:51.523Z,1.90
2023-05-23T13:49:18.660Z,1.73
2023-05-23T13:51:45.336Z,1.77
2023-05-23T13:54:13.340Z,2.00
2023-05-23T13:56:40.429Z,1.90
2023-05-23T13:59:07.103Z,1.73
2023-05-23T14:01:33.672Z,1.80
2023-05-23T14:04:00.415Z,1.63
2023-05-23T14:06:27.021Z,1.67
2023-05-23T14:08:53.572Z,1.93
2023-05-23T14:11:20.186Z,1.90
2023-05-23T14:13:46.753Z,1.60
2023-05-23T14:16:13.389Z,1.80
2023-05-23T14:18:39.981Z,1.90
2023-05-23T14:21:06.562Z,1.87
2023-05-23T14:23:33.131Z,2.00
2023-05-23T14:25:59.711Z,2.00
2023-05-23T14:28:26.321Z,1.77
2023-05-23T14:30:53.068Z,1.60
2023-05-23T14:33:19.764Z,1.80
2023-05-23T14:35:46.425Z,1.80
2023-05-23T14:38:13.083Z,1.80
2023-05-23T14:40:39.720Z,1.60
2023-05-23T14:43:06.363Z,1.87
2023-05-23T14:45:32.991Z,1.87
2023-05-23T14:47:59.639Z,1.90
2023-05-23T14:50:26.653Z,1.70
2023-05-23T14:52:53.227Z,1.70
2023-05-23T14:55:19.902Z,1.83
2023-05-23T14:57:46.553Z,1.73
2023-05-23T15:00:13.654Z,1.87
2023-05-23T15:02:40.276Z,2.00
2023-05-23T15:05:07.713Z,1.70
2023-05-23T15:07:34.446Z,1.70
2023-05-23T15:10:02.810Z,1.83
2023-05-23T15:12:29.413Z,1.87
2023-05-23T15:15:03.207Z,1.60
2023-05-23T15:17:33.055Z,1.90
2023-05-23T15:19:59.813Z,1.70
2023-05-23T15:24:56.020Z,1.67
2023-05-23T15:27:22.753Z,1.80
2023-05-23T15:29:49.379Z,1.57
2023-05-23T15:32:16.100Z,1.90
2023-05-23T15:34:42.849Z,1.57
2023-05-23T15:37:09.451Z,1.70
2023-05-23T15:39:36.036Z,1.80
2023-05-23T15:42:03.352Z,1.93
2023-05-23T15:44:29.994Z,1.77
2023-05-23T15:46:56.691Z,1.90
2023-05-23T15:49:26.978Z,1.70
2023-05-23T15:51:54.294Z,1.40
2023-05-23T15:54:21.009Z,1.63
2023-05-23T15:56:47.615Z,1.83
2023-05-23T15:59:14.254Z,1.60
2023-05-23T16:01:41.904Z,2.03
2023-05-23T16:04:08.589Z,1.67
2023-05-23T16:06:35.156Z,1.70
2023-05-23T16:09:01.725Z,1.63
2023-05-23T16:11:28.296Z,1.70
2023-05-23T16:13:54.856Z,1.63
2023-05-23T16:16:21.556Z,1.83
2023-05-23T16:18:48.306Z,1.60
2023-05-23T16:21:20.209Z,1.57
2023-05-23T16:23:48.260Z,1.70
2023-05-23T16:26:14.945Z,1.53
2023-05-23T16:28:43.522Z,1.80
2023-05-23T16:31:14.016Z,1.80
2023-05-23T16:33:40.609Z,1.80
2023-05-23T16:36:07.282Z,1.80
2023-05-23T16:38:33.905Z,1.77
2023-05-23T16:41:00.825Z,1.50
2023-05-23T16:43:27.436Z,1.90
2023-05-23T16:45:54.026Z,1.90
2023-05-23T16:48:21.708Z,1.70
2023-05-23T16:50:48.319Z,1.70
2023-05-23T16:53:14.883Z,1.50
2023-05-23T16:55:41.632Z,1.70
2023-05-23T16:58:08.405Z,1.60
2023-05-23T17:00:34.987Z,2.00
2023-05-23T17:03:01.608Z,1.77
2023-05-23T17:05:28.541Z,2.00
2023-05-23T17:07:55.112Z,1.80
2023-05-23T17:10:22.603Z,1.77
2023-05-23T17:12:49.147Z,1.77
2023-05-23T17:15:15.735Z,1.60
2023-05-23T17:17:42.344Z,1.50
2023-05-23T17:20:09.509Z,1.60
2023-05-23T17:22:37.030Z,1.70
2023-05-23T17:25:05.261Z,1.70
2023-05-23T17:27:32.306Z,1.60
2023-05-23T17:29:59.780Z,1.50
2023-05-23T17:32:26.587Z,1.60
2023-05-23T17:34:53.227Z,1.70
2023-05-23T17:37:20.008Z,1.70
2023-05-23T17:39:46.903Z,1.70
2023-05-23T17:42:13.898Z,1.57
2023-05-23T17:44:40.445Z,1.80
2023-05-23T17:47:07.324Z,1.60
2023-05-23T17:49:33.975Z,1.80
2023-05-23T17:52:04.620Z,1.60
2023-05-23T17:54:31.619Z,1.50
2023-05-23T17:56:58.225Z,1.70
2023-05-23T17:59:24.958Z,1.60
2023-05-23T18:01:51.725Z,1.50
2023-05-23T18:04:18.410Z,1.60
2023-05-23T18:06:45.083Z,1.70
2023-05-23T18:09:11.665Z,1.87
2023-05-23T18:11:38.404Z,1.60
2023-05-23T18:14:05.028Z,1.60
2023-05-23T18:16:32.315Z,1.70
2023-05-23T18:18:59.675Z,1.60
2023-05-23T18:21:26.863Z,1.70
2023-05-23T18:23:53.450Z,1.70
2023-05-23T18:26:20.006Z,1.70
2023-05-23T18:28:46.567Z,1.70
2023-05-23T18:31:13.213Z,1.70
2023-05-23T18:33:39.839Z,1.70
2023-05-23T18:36:07.125Z,1.60
2023-05-23T18:38:34.203Z,1.33
2023-05-23T18:41:00.836Z,1.70
2023-05-23T18:43:27.507Z,1.50
2023-05-23T18:45:54.087Z,1.50
2023-05-23T18:48:21.618Z,1.53
2023-05-23T18:50:48.214Z,1.60
2023-05-23T18:53:15.915Z,1.67
2023-05-23T18:55:42.563Z,1.70
2023-05-23T18:58:09.173Z,1.50
2023-05-23T19:00:35.806Z,1.80
2023-05-23T19:03:02.519Z,1.60
2023-05-23T19:05:29.429Z,1.60
2023-05-23T19:07:56.078Z,1.50
2023-05-23T19:10:22.650Z,1.40
2023-05-23T19:12:49.295Z,1.70
2023-05-23T19:15:15.849Z,1.40
2023-05-23T19:17:42.641Z,1.63
2023-05-23T19:20:09.641Z,1.60
2023-05-23T19:22:50.419Z,1.70
2023-05-23T19:25:18.009Z,1.53
2023-05-23T19:27:44.630Z,1.53
2023-05-23T19:30:11.670Z,1.53
2023-05-23T19:32:38.278Z,1.50
2023-05-23T19:35:05.590Z,1.60
2023-05-23T19:37:32.150Z,1.60
2023-05-23T19:39:58.975Z,1.50
2023-05-23T19:42:25.589Z,1.67
2023-05-23T19:44:52.301Z,1.57
2023-05-23T19:47:18.876Z,1.50
2023-05-23T19:49:45.751Z,1.30
2023-05-23T19:52:12.307Z,1.60
2023-05-23T19:54:38.924Z,1.93
2023-05-23T19:57:05.932Z,1.60
2023-05-23T19:59:32.499Z,1.60
2023-05-23T20:01:59.346Z,1.50
2023-05-23T20:04:26.083Z,1.57
2023-05-23T20:06:52.728Z,1.60
2023-05-23T20:09:19.288Z,1.53
2023-05-23T20:11:46.482Z,1.50
2023-05-23T20:14:13.027Z,1.50
2023-05-23T20:16:39.901Z,1.70
2023-05-23T20:19:07.199Z,1.70
2023-05-23T20:21:33.882Z,1.57
2023-05-23T20:24:00.588Z,1.50
2023-05-23T20:26:27.648Z,1.40
2023-05-23T20:28:54.248Z,1.53
2023-05-23T20:31:20.934Z,1.30
2023-05-23T20:33:47.528Z,1.60
2023-05-23T20:36:14.112Z,1.40
2023-05-23T20:38:41.047Z,1.50
2023-05-23T20:41:07.706Z,1.40
2023-05-23T20:43:37.262Z,1.53
2023-05-23T20:46:05.677Z,1.50
2023-05-23T20:48:41.820Z,1.53
2023-05-23T20:51:08.807Z,1.60
2023-05-23T20:53:36.544Z,1.53
2023-05-23T20:56:03.401Z,1.90
2023-05-23T20:58:30.094Z,1.80
2023-05-23T21:00:57.716Z,1.50
2023-05-23T21:03:24.311Z,1.67
2023-05-23T21:05:51.053Z,1.57
2023-05-23T21:08:17.637Z,1.50
2023-05-23T21:10:46.890Z,1.60
2023-05-23T21:13:16.935Z,1.57
2023-05-23T21:15:43.766Z,1.60
2023-05-23T21:18:10.618Z,1.40
2023-05-23T21:20:37.225Z,1.60
2023-05-23T21:23:03.799Z,1.50
2023-05-23T21:25:30.415Z,1.40
2023-05-23T21:27:56.992Z,1.73
2023-05-23T21:30:25.117Z,1.57
2023-05-23T21:32:52.978Z,1.40
2023-05-23T21:35:19.676Z,1.60
2023-05-23T21:37:46.366Z,1.43
2023-05-23T21:40:12.934Z,1.70
2023-05-23T21:42:39.543Z,1.57
2023-05-23T21:45:06.815Z,1.70
2023-05-23T21:47:33.448Z,1.60
2023-05-23T21:50:00.058Z,1.60
2023-05-23T21:52:26.686Z,1.47
2023-05-23T21:54:53.210Z,1.70
2023-05-23T21:57:19.751Z,1.60
2023-05-23T21:59:46.346Z,1.60
2023-05-23T22:02:12.974Z,1.70
2023-05-23T22:04:39.555Z,1.60
2023-05-23T22:07:06.198Z,1.40
2023-05-23T22:09:32.814Z,1.60
2023-05-23T22:11:59.358Z,1.50
2023-05-23T22:14:25.937Z,1.50
2023-05-23T22:16:52.510Z,1.60
2023-05-23T22:19:21.065Z,1.40
2023-05-23T22:21:47.826Z,1.53
2023-05-23T22:24:14.415Z,1.77
2023-05-23T22:26:41.145Z,1.50
2023-05-23T22:29:07.891Z,1.50
2023-05-23T22:31:35.443Z,1.77
2023-05-23T22:34:02.163Z,1.63
2023-05-23T22:36:28.710Z,1.40
2023-05-23T22:38:56.064Z,1.50
2023-05-23T22:41:23.464Z,1.73
2023-05-23T22:43:50.218Z,1.70
2023-05-23T22:46:16.914Z,1.73
2023-05-23T22:48:45.040Z,1.57
2023-05-23T22:51:14.335Z,1.60
2023-05-23T22:53:41.435Z,1.60
2023-05-23T22:56:08.026Z,1.40
2023-05-23T22:58:34.727Z,1.30
2023-05-23T23:01:01.311Z,1.50
2023-05-23T23:03:27.878Z,1.60
2023-05-23T23:05:54.428Z,1.50
2023-05-23T23:08:21.824Z,1.63
2023-05-23T23:10:48.419Z,1.80
2023-05-23T23:13:15.016Z,1.50
2023-05-23T23:15:42.980Z,1.57
2023-05-23T23:18:09.934Z,1.60
2023-05-23T23:20:36.688Z,1.60
2023-05-23T23:23:03.425Z,1.40
2023-05-23T23:25:30.411Z,1.50
2023-05-23T23:27:57.030Z,1.67
2023-05-23T23:30:23.668Z,1.70
2023-05-23T23:32:50.444Z,1.53
2023-05-23T23:35:17.088Z,1.63
2023-05-23T23:37:43.864Z,1.37
2023-05-23T23:40:10.936Z,1.43
2023-05-23T23:42:37.481Z,1.60
2023-05-23T23:45:04.828Z,1.53
2023-05-23T23:47:32.637Z,1.50
2023-05-23T23:49:59.315Z,1.60
2023-05-23T23:52:26.078Z,1.60
2023-05-23T23:54:52.798Z,1.60
2023-05-23T23:57:19.473Z,1.50
2023-05-23T23:59:46.142Z,1.30
